createdAt,value
2023-01-10T00:00:26.405Z,6.26
2023-01-10T00:02:52.935Z,6.30
2023-01-10T00:05:19.564Z,6.30
2023-01-10T00:07:46.059Z,6.27
2023-01-10T00:10:12.607Z,6.29
2023-01-10T00:12:57.718Z,6.24
2023-01-10T00:15:24.322Z,6.23
2023-01-10T00:17:50.954Z,6.20
2023-01-10T00:20:17.720Z,6.19
2023-01-10T00:22:45.402Z,6.21
2023-01-10T00:25:12.120Z,6.19
2023-01-10T00:27:39.203Z,6.21
2023-01-10T00:30:15.431Z,6.20
2023-01-10T00:32:42.479Z,6.22
2023-01-10T00:35:09.449Z,6.25
2023-01-10T00:37:36.038Z,6.28
2023-01-10T00:40:02.416Z,6.26
2023-01-10T00:42:47.701Z,6.31
2023-01-10T00:45:14.148Z,6.30
2023-01-10T00:47:40.709Z,6.34
2023-01-10T00:50:08.478Z,6.34
2023-01-10T00:52:35.188Z,6.33
2023-01-10T00:55:01.563Z,6.35
2023-01-10T00:57:27.967Z,6.36
2023-01-10T00:59:54.342Z,6.38
2023-01-10T01:02:20.999Z,6.37
2023-01-10T01:04:47.408Z,6.36
2023-01-10T01:07:13.976Z,6.37
2023-01-10T01:10:00.287Z,6.35
2023-01-10T01:12:26.892Z,6.33
2023-01-10T01:14:53.259Z,6.34
2023-01-10T01:17:19.653Z,6.33
2023-01-10T01:19:46.217Z,6.30
2023-01-10T01:22:12.612Z,6.30
2023-01-10T01:24:39.670Z,6.33
2023-01-10T01:27:06.018Z,6.36
2023-01-10T01:29:43.021Z,6.38
2023-01-10T01:32:09.955Z,6.37
2023-01-10T01:34:36.718Z,6.35
2023-01-10T01:37:03.086Z,6.34
2023-01-10T01:39:29.656Z,6.32
2023-01-10T01:42:00.113Z,6.34
2023-01-10T01:44:31.938Z,6.32
2023-01-10T01:47:07.387Z,6.34
2023-01-10T01:49:38.897Z,6.34
2023-01-10T01:52:26.935Z,6.33
2023-01-10T01:54:54.303Z,6.34
2023-01-10T01:57:20.930Z,6.35
2023-01-10T01:59:48.492Z,6.34
2023-01-10T02:02:19.016Z,6.33
2023-01-10T02:04:52.805Z,6.36
2023-01-10T02:07:19.196Z,6.31
2023-01-10T02:09:48.922Z,6.36
2023-01-10T02:12:15.572Z,6.36
2023-01-10T02:14:45.101Z,6.34
2023-01-10T02:17:11.740Z,6.35
2023-01-10T02:19:56.466Z,6.35
2023-01-10T02:22:54.016Z,6.36
2023-01-10T02:25:42.345Z,6.35
2023-01-10T02:28:43.682Z,6.32
2023-01-10T02:31:19.671Z,6.33
2023-01-10T02:33:46.084Z,6.32
2023-01-10T02:36:25.905Z,6.30
2023-01-10T02:39:11.721Z,6.34
2023-01-10T02:41:56.462Z,6.33
2023-01-10T02:44:55.206Z,6.32
2023-01-10T02:47:21.579Z,6.32
2023-01-10T02:49:51.132Z,6.30
2023-01-10T02:52:28.115Z,6.28
2023-01-10T02:54:58.696Z,6.29
2023-01-10T02:57:51.824Z,6.27
2023-01-10T03:00:30.312Z,6.30
2023-01-10T03:03:16.986Z,6.30
2023-01-10T03:05:46.473Z,6.26
2023-01-10T03:08:33.859Z,6.25
2023-01-10T03:11:05.182Z,6.26
2023-01-10T03:13:37.806Z,6.29
2023-01-10T03:16:05.738Z,6.25
2023-01-10T03:18:34.078Z,6.26
2023-01-10T03:21:00.865Z,6.26
2023-01-10T03:23:27.435Z,6.26
2023-01-10T03:25:53.790Z,6.29
2023-01-10T03:28:24.041Z,6.26
2023-01-10T03:31:06.268Z,6.25
2023-01-10T03:33:32.981Z,6.27
2023-01-10T03:36:16.741Z,6.24
2023-01-10T03:38:53.919Z,6.20
2023-01-10T03:41:35.799Z,6.16
2023-01-10T03:44:29.120Z,6.13
2023-01-10T03:47:10.623Z,6.04
2023-01-10T03:49:38.756Z,6.04
2023-01-10T03:52:05.250Z,5.97
2023-01-10T03:54:31.595Z,5.99
2023-01-10T03:56:58.194Z,5.99
2023-01-10T03:59:25.983Z,5.97
2023-01-10T04:01:53.171Z,5.99
2023-01-10T04:04:19.709Z,6.02
2023-01-10T04:06:46.418Z,6.05
2023-01-10T04:09:12.864Z,6.08
2023-01-10T04:11:39.315Z,6.05
2023-01-10T04:14:05.744Z,6.09
2023-01-10T04:16:32.309Z,6.10
2023-01-10T04:18:58.662Z,6.10
2023-01-10T04:21:25.227Z,6.07
2023-01-10T04:23:51.569Z,6.10
2023-01-10T04:26:18.253Z,6.10
2023-01-10T04:28:44.635Z,6.12
2023-01-10T04:31:11.003Z,6.12
2023-01-10T04:33:39.246Z,6.12
2023-01-10T04:36:05.875Z,6.11
2023-01-10T04:38:32.499Z,6.13
2023-01-10T04:40:58.980Z,6.14
2023-01-10T04:43:25.680Z,6.15
2023-01-10T04:45:52.129Z,6.15
2023-01-10T04:48:18.815Z,6.11
2023-01-10T04:50:51.897Z,6.08
2023-01-10T04:53:18.573Z,6.10
2023-01-10T04:55:44.984Z,6.05
2023-01-10T04:58:11.539Z,6.04
2023-01-10T05:00:38.200Z,6.01
2023-01-10T05:03:04.908Z,6.01
2023-01-10T05:05:31.523Z,5.96
2023-01-10T05:07:58.471Z,5.94
2023-01-10T05:10:25.040Z,5.94
2023-01-10T05:12:51.392Z,5.92
2023-01-10T05:15:18.059Z,5.95
2023-01-10T05:17:44.481Z,5.94
2023-01-10T05:20:13.572Z,5.91
2023-01-10T05:22:39.925Z,5.93
2023-01-10T05:25:06.533Z,5.94
2023-01-10T05:27:32.871Z,5.96
2023-01-10T05:29:59.461Z,5.95
2023-01-10T05:32:29.448Z,5.95
2023-01-10T05:34:56.332Z,5.96
2023-01-10T05:37:22.676Z,5.93
2023-01-10T05:39:49.081Z,5.90
2023-01-10T05:42:15.417Z,5.87
2023-01-10T05:44:41.754Z,5.84
2023-01-10T05:47:08.140Z,5.81
2023-01-10T05:49:34.507Z,5.78
2023-01-10T05:52:00.871Z,5.75
2023-01-10T05:54:27.299Z,5.72
2023-01-10T05:56:53.908Z,5.68
2023-01-10T05:59:27.974Z,5.69
2023-01-10T06:01:55.194Z,5.67
2023-01-10T06:04:21.538Z,5.68
2023-01-10T06:06:48.088Z,5.67
2023-01-10T06:09:14.455Z,5.67
2023-01-10T06:11:40.841Z,5.66
2023-01-10T06:14:07.761Z,5.63
2023-01-10T06:16:34.388Z,5.65
2023-01-10T06:19:00.747Z,5.61
2023-01-10T06:21:27.103Z,5.62
2023-01-10T06:23:53.568Z,5.60
2023-01-10T06:26:19.958Z,5.58
2023-01-10T06:28:46.478Z,5.58
2023-01-10T06:31:14.904Z,5.55
2023-01-10T06:33:41.781Z,5.51
2023-01-10T06:36:08.607Z,5.55
2023-01-10T06:38:35.193Z,5.52
2023-01-10T06:41:12.813Z,5.53
2023-01-10T06:43:43.520Z,5.54
2023-01-10T06:46:10.049Z,5.54
2023-01-10T06:48:36.981Z,5.55
2023-01-10T06:51:04.456Z,5.58
2023-01-10T06:53:30.873Z,5.57
2023-01-10T06:56:00.185Z,5.60
2023-01-10T06:58:26.608Z,5.61
2023-01-10T07:00:53.073Z,5.65
2023-01-10T07:03:19.444Z,5.67
2023-01-10T07:05:46.025Z,5.66
2023-01-10T07:08:12.443Z,5.66
2023-01-10T07:10:42.255Z,5.69
2023-01-10T07:13:08.849Z,5.67
2023-01-10T07:15:35.502Z,5.70
2023-01-10T07:18:01.974Z,5.68
2023-01-10T07:20:28.809Z,5.68
2023-01-10T07:22:55.848Z,5.68
2023-01-10T07:25:23.243Z,5.71
2023-01-10T07:27:49.605Z,5.70
2023-01-10T07:30:16.387Z,5.69
2023-01-10T07:32:42.754Z,5.69
2023-01-10T07:35:09.369Z,5.64
2023-01-10T07:37:35.751Z,5.65
2023-01-10T07:40:02.172Z,5.59
2023-01-10T07:42:28.559Z,5.57
2023-01-10T07:44:54.955Z,5.55
2023-01-10T07:47:21.331Z,5.54
2023-01-10T07:49:47.671Z,5.53
2023-01-10T07:52:14.323Z,5.53
2023-01-10T07:54:40.666Z,5.53
2023-01-10T07:57:07.103Z,5.52
2023-01-10T07:59:33.473Z,5.50
2023-01-10T08:01:59.822Z,5.52
2023-01-10T08:04:26.424Z,5.52
2023-01-10T08:06:54.823Z,5.55
2023-01-10T08:09:21.189Z,5.58
2023-01-10T08:11:47.534Z,5.60
2023-01-10T08:14:14.129Z,5.62
2023-01-10T08:16:40.507Z,5.65
2023-01-10T08:19:08.083Z,5.68
2023-01-10T08:21:34.459Z,5.66
2023-01-10T08:24:01.015Z,5.72
2023-01-10T08:26:27.372Z,5.74
2023-01-10T08:28:54.123Z,5.71
2023-01-10T08:31:20.587Z,5.73
2023-01-10T08:33:47.192Z,5.75
2023-01-10T08:36:20.252Z,5.77
2023-01-10T08:38:47.995Z,5.78
2023-01-10T08:41:14.417Z,5.76
2023-01-10T08:43:40.898Z,5.79
2023-01-10T08:46:07.261Z,5.81
2023-01-10T08:48:33.783Z,5.82
2023-01-10T08:51:05.562Z,5.81
2023-01-10T08:53:31.949Z,5.84
2023-01-10T08:55:58.503Z,5.87
2023-01-10T08:58:24.860Z,5.89
2023-01-10T09:00:51.442Z,5.92
2023-01-10T09:03:19.076Z,5.92
2023-01-10T09:05:45.467Z,5.96
2023-01-10T09:08:11.866Z,5.99
2023-01-10T09:10:38.435Z,6.00
2023-01-10T09:13:05.866Z,6.01
2023-01-10T09:15:34.452Z,6.06
2023-01-10T09:18:02.323Z,6.08
2023-01-10T09:20:29.201Z,6.13
2023-01-10T09:22:56.843Z,6.19
2023-01-10T09:25:23.361Z,6.20
2023-01-10T09:27:56.381Z,6.25
2023-01-10T09:30:22.922Z,6.31
2023-01-10T09:32:53.664Z,6.34
2023-01-10T09:35:20.107Z,6.40
2023-01-10T09:37:46.500Z,6.44
2023-01-10T09:40:16.886Z,6.49
2023-01-10T09:42:43.502Z,6.53
2023-01-10T09:45:19.422Z,6.60
2023-01-10T09:47:54.303Z,6.62
2023-01-10T09:50:32.094Z,6.69
2023-01-10T09:53:06.988Z,6.72
2023-01-10T09:55:34.584Z,6.71
2023-01-10T09:58:04.145Z,6.75
2023-01-10T10:00:39.336Z,6.74
2023-01-10T10:03:14.937Z,6.78
2023-01-10T10:05:41.880Z,6.77
2023-01-10T10:08:08.737Z,6.79
2023-01-10T10:10:39.571Z,6.80
2023-01-10T10:13:27.449Z,6.82
2023-01-10T10:16:02.798Z,6.83
2023-01-10T10:18:49.265Z,6.83
2023-01-10T10:21:27.658Z,6.85
2023-01-10T10:24:00.113Z,6.86
2023-01-10T10:26:33.181Z,6.86
2023-01-10T10:29:14.722Z,6.87
2023-01-10T10:32:02.796Z,6.86
2023-01-10T10:34:48.349Z,6.86
2023-01-10T10:37:32.643Z,6.91
2023-01-10T10:40:00.883Z,6.88
2023-01-10T10:42:29.729Z,6.90
2023-01-10T10:45:07.683Z,6.88
2023-01-10T10:47:35.254Z,6.89
2023-01-10T10:50:34.028Z,6.86
2023-01-10T10:53:03.961Z,6.89
2023-01-10T10:55:35.216Z,6.92
2023-01-10T10:58:02.610Z,6.89
2023-01-10T11:00:31.179Z,6.93
2023-01-10T11:03:03.435Z,6.93
2023-01-10T11:05:37.164Z,6.93
2023-01-10T11:08:08.280Z,6.92
2023-01-10T11:10:35.030Z,6.90
2023-01-10T11:13:06.698Z,6.92
2023-01-10T11:15:36.384Z,6.96
2023-01-10T11:18:16.504Z,6.99
2023-01-10T11:20:52.178Z,7.04
2023-01-10T11:23:23.704Z,7.08
2023-01-10T11:25:50.370Z,7.11
2023-01-10T11:28:18.468Z,7.16
2023-01-10T11:30:47.287Z,7.13
2023-01-10T11:33:20.521Z,7.15
2023-01-10T11:36:01.663Z,7.18
2023-01-10T11:38:31.164Z,7.17
2023-01-10T11:41:02.340Z,7.15
2023-01-10T11:43:33.938Z,7.19
2023-01-10T11:46:12.701Z,7.21
2023-01-10T11:49:10.206Z,7.21
2023-01-10T11:52:06.360Z,7.24
2023-01-10T11:54:32.905Z,7.25
2023-01-10T11:57:16.061Z,7.32
2023-01-10T12:00:04.008Z,7.37
2023-01-10T12:02:40.610Z,7.41
2023-01-10T12:05:09.335Z,7.47
2023-01-10T12:07:58.957Z,7.47
2023-01-10T12:10:27.288Z,7.47
2023-01-10T12:12:58.805Z,7.43
2023-01-10T12:15:30.416Z,7.44
2023-01-10T12:18:01.542Z,7.45
2023-01-10T12:20:29.895Z,7.51
2023-01-10T12:22:59.525Z,7.59
2023-01-10T12:25:36.969Z,7.65
2023-01-10T12:28:03.825Z,7.61
2023-01-10T12:30:38.674Z,7.61
2023-01-10T12:33:13.680Z,7.69
2023-01-10T12:35:42.089Z,7.80
2023-01-10T12:38:41.727Z,7.82
2023-01-10T12:41:08.139Z,7.80
2023-01-10T12:43:55.226Z,7.73
2023-01-10T12:47:00.106Z,7.69
2023-01-10T12:49:28.495Z,7.64
2023-01-10T12:51:55.191Z,7.59
2023-01-10T12:54:23.418Z,7.55
2023-01-10T12:56:49.813Z,7.54
2023-01-10T12:59:37.923Z,7.49
2023-01-10T13:02:25.869Z,7.50
2023-01-10T13:04:56.002Z,7.58
2023-01-10T13:07:22.615Z,7.64
2023-01-10T13:09:49.019Z,7.67
2023-01-10T13:12:31.800Z,7.70
2023-01-10T13:15:01.419Z,7.79
2023-01-10T13:17:33.867Z,7.80
2023-01-10T13:20:25.854Z,7.83
2023-01-10T13:22:53.368Z,7.82
2023-01-10T13:25:30.357Z,7.77
2023-01-10T13:28:03.744Z,7.75
2023-01-10T13:30:37.483Z,7.75
2023-01-10T13:33:21.101Z,7.73
2023-01-10T13:35:48.995Z,7.73
2023-01-10T13:38:27.983Z,7.71
2023-01-10T13:41:05.552Z,7.70
2023-01-10T13:43:37.267Z,7.69
2023-01-10T13:46:16.175Z,7.69
2023-01-10T13:49:03.609Z,7.68
2023-01-10T13:51:31.001Z,7.66
2023-01-10T13:54:01.834Z,7.66
2023-01-10T13:56:36.008Z,7.61
2023-01-10T13:59:18.022Z,7.63
2023-01-10T14:02:03.775Z,7.61
2023-01-10T14:04:31.791Z,7.59
2023-01-10T14:07:02.139Z,7.59
2023-01-10T14:09:32.654Z,7.59
2023-01-10T14:11:59.580Z,7.57
2023-01-10T14:14:32.015Z,7.59
2023-01-10T14:17:10.563Z,7.58
2023-01-10T14:19:36.961Z,7.58
2023-01-10T14:22:03.781Z,7.53
2023-01-10T14:24:43.679Z,7.52
2023-01-10T14:27:14.585Z,7.50
2023-01-10T14:29:40.980Z,7.49
2023-01-10T14:32:17.624Z,7.49
2023-01-10T14:34:46.506Z,7.48
2023-01-10T14:37:37.658Z,7.48
2023-01-10T14:40:29.292Z,7.45
2023-01-10T14:42:58.353Z,7.45
2023-01-10T14:45:27.847Z,7.42
2023-01-10T14:47:54.401Z,7.39
2023-01-10T14:50:30.255Z,7.36
2023-01-10T14:52:56.657Z,7.34
2023-01-10T14:55:23.298Z,7.33
2023-01-10T14:58:01.597Z,7.29
2023-01-10T15:00:32.719Z,7.28
2023-01-10T15:03:03.063Z,7.26
2023-01-10T15:05:36.486Z,7.24
2023-01-10T15:08:25.158Z,7.22
2023-01-10T15:10:56.974Z,7.19
2023-01-10T15:13:26.277Z,7.15
2023-01-10T15:15:52.780Z,7.15
2023-01-10T15:18:37.829Z,7.16
2023-01-10T15:21:04.460Z,7.14
2023-01-10T15:23:38.353Z,7.13
2023-01-10T15:26:10.638Z,7.09
2023-01-10T15:28:37.060Z,7.10
2023-01-10T15:31:04.777Z,7.11
2023-01-10T15:33:32.908Z,7.12
2023-01-10T15:36:04.115Z,7.07
2023-01-10T15:38:34.044Z,7.07
2023-01-10T15:41:04.257Z,7.03
2023-01-10T15:43:31.056Z,7.05
2023-01-10T15:45:58.497Z,7.00
2023-01-10T15:48:30.905Z,6.96
2023-01-10T15:51:04.363Z,6.90
2023-01-10T15:53:53.839Z,6.88
2023-01-10T15:56:28.040Z,6.83
2023-01-10T15:58:55.155Z,6.83
2023-01-10T16:01:21.624Z,6.80
2023-01-10T16:03:52.627Z,6.78
2023-01-10T16:06:34.923Z,6.73
2023-01-10T16:09:06.208Z,6.69
2023-01-10T16:12:09.905Z,6.70
2023-01-10T16:14:36.476Z,6.65
2023-01-10T16:17:02.983Z,6.66
2023-01-10T16:19:29.373Z,6.65
2023-01-10T16:21:59.169Z,6.62
2023-01-10T16:24:28.060Z,6.61
2023-01-10T16:26:55.469Z,6.59
2023-01-10T16:29:22.804Z,6.59
2023-01-10T16:31:49.733Z,6.57
2023-01-10T16:34:16.306Z,6.58
2023-01-10T16:36:43.068Z,6.53
2023-01-10T16:39:23.051Z,6.53
2023-01-10T16:42:08.515Z,6.52
2023-01-10T16:44:35.039Z,6.49
2023-01-10T16:47:04.911Z,6.49
2023-01-10T16:49:32.875Z,6.50
2023-01-10T16:51:59.438Z,6.49
2023-01-10T16:54:25.866Z,6.46
2023-01-10T16:56:52.447Z,6.45
2023-01-10T16:59:20.259Z,6.46
2023-01-10T17:01:57.555Z,6.44
2023-01-10T17:04:27.189Z,6.43
2023-01-10T17:06:53.986Z,6.41
2023-01-10T17:09:24.629Z,6.41
2023-01-10T17:12:03.040Z,6.40
2023-01-10T17:14:30.510Z,6.38
2023-01-10T17:16:56.923Z,6.39
2023-01-10T17:19:24.369Z,6.35
2023-01-10T17:21:50.738Z,6.39
2023-01-10T17:24:17.679Z,6.37
2023-01-10T17:26:44.055Z,6.35
2023-01-10T17:29:10.419Z,6.37
2023-01-10T17:31:36.798Z,6.36
2023-01-10T17:34:03.230Z,6.34
2023-01-10T17:36:32.351Z,6.29
2023-01-10T17:38:59.665Z,6.30
2023-01-10T17:41:26.050Z,6.31
2023-01-10T17:43:52.433Z,6.33
2023-01-10T17:46:18.878Z,6.30
2023-01-10T17:48:45.361Z,6.29
2023-01-10T17:51:13.129Z,6.31
2023-01-10T17:53:40.392Z,6.31
2023-01-10T17:56:07.110Z,6.29
2023-01-10T17:58:34.435Z,6.30
2023-01-10T18:01:00.996Z,6.28
2023-01-10T18:03:27.677Z,6.24
2023-01-10T18:05:55.600Z,6.27
2023-01-10T18:08:22.303Z,6.24
2023-01-10T18:10:48.927Z,6.25
2023-01-10T18:13:16.016Z,6.23
2023-01-10T18:15:47.407Z,6.20
2023-01-10T18:18:14.058Z,6.21
2023-01-10T18:20:41.668Z,6.25
2023-01-10T18:23:22.770Z,6.23
2023-01-10T18:26:02.385Z,6.25
2023-01-10T18:28:40.505Z,6.25
2023-01-10T18:31:17.864Z,6.24
2023-01-10T18:33:45.009Z,6.27
2023-01-10T18:36:14.730Z,6.28
2023-01-10T18:38:41.316Z,6.29
2023-01-10T18:41:07.941Z,6.31
2023-01-10T18:43:34.368Z,6.31
2023-01-10T18:46:08.044Z,6.32
2023-01-10T18:48:34.400Z,6.34
2023-01-10T18:51:01.558Z,6.36
2023-01-10T18:53:27.968Z,6.34
2023-01-10T18:55:54.732Z,6.33
2023-01-10T18:58:28.619Z,6.32
2023-01-10T19:00:55.007Z,6.30
2023-01-10T19:03:21.742Z,6.32
2023-01-10T19:05:48.126Z,6.29
2023-01-10T19:08:14.552Z,6.32
2023-01-10T19:11:07.156Z,6.31
2023-01-10T19:13:30.860Z,6.32
2023-01-10T19:16:16.646Z,6.32
2023-01-10T19:18:43.540Z,6.34
2023-01-10T19:21:15.016Z,6.33
2023-01-10T19:23:42.723Z,6.37
2023-01-10T19:26:09.112Z,6.35
2023-01-10T19:28:35.526Z,6.37
2023-01-10T19:31:04.983Z,6.36
2023-01-10T19:33:34.180Z,6.38
2023-01-10T19:36:04.757Z,6.39
2023-01-10T19:38:31.123Z,6.40
2023-01-10T19:40:57.914Z,6.45
2023-01-10T19:43:25.866Z,6.47
2023-01-10T19:45:53.293Z,6.46
2023-01-10T19:48:19.763Z,6.49
2023-01-10T19:50:46.595Z,6.49
2023-01-10T19:53:13.410Z,6.47
2023-01-10T19:55:39.850Z,6.47
2023-01-10T19:58:06.277Z,6.47
2023-01-10T20:00:32.625Z,6.50
2023-01-10T20:03:03.087Z,6.52
2023-01-10T20:05:29.655Z,6.53
2023-01-10T20:07:56.015Z,6.52
2023-01-10T20:10:22.439Z,6.56
2023-01-10T20:12:48.935Z,6.60
2023-01-10T20:15:15.375Z,6.59
2023-01-10T20:17:43.139Z,6.60
2023-01-10T20:20:10.206Z,6.59
2023-01-10T20:22:36.548Z,6.62
2023-01-10T20:25:02.962Z,6.60
2023-01-10T20:27:29.342Z,6.61
2023-01-10T20:29:55.766Z,6.59
2023-01-10T20:32:22.909Z,6.58
2023-01-10T20:34:49.747Z,6.55
2023-01-10T20:37:16.275Z,6.53
2023-01-10T20:39:42.633Z,6.52
2023-01-10T20:42:09.082Z,6.52
2023-01-10T20:44:35.441Z,6.43
2023-01-10T20:47:01.803Z,6.32
2023-01-10T20:49:28.211Z,6.29
2023-01-10T20:51:54.724Z,6.22
2023-01-10T20:54:21.076Z,6.12
2023-01-10T20:56:47.741Z,6.07
2023-01-10T20:59:14.099Z,6.10
2023-01-10T21:01:40.640Z,6.01
2023-01-10T21:04:07.429Z,5.95
2023-01-10T21:06:34.353Z,5.90
2023-01-10T21:09:00.965Z,5.84
2023-01-10T21:11:27.560Z,5.82
2023-01-10T21:13:54.021Z,5.79
2023-01-10T21:16:21.965Z,5.79
2023-01-10T21:18:48.677Z,5.80
2023-01-10T21:21:17.041Z,5.78
2023-01-10T21:23:43.431Z,5.72
2023-01-10T21:26:13.697Z,5.74
2023-01-10T21:28:46.478Z,5.76
2023-01-10T21:31:18.120Z,5.73
2023-01-10T21:33:44.629Z,5.77
2023-01-10T21:36:12.683Z,5.75
2023-01-10T21:38:40.509Z,5.73
2023-01-10T21:41:09.801Z,5.75
2023-01-10T21:43:36.297Z,5.68
2023-01-10T21:46:02.763Z,5.68
2023-01-10T21:48:29.314Z,5.67
2023-01-10T21:50:57.624Z,5.70
2023-01-10T21:53:24.124Z,5.72
2023-01-10T21:55:50.484Z,5.72
2023-01-10T21:58:16.898Z,5.75
2023-01-10T22:00:43.518Z,5.74
2023-01-10T22:03:09.907Z,5.73
2023-01-10T22:05:36.276Z,5.74
2023-01-10T22:08:02.872Z,5.76
2023-01-10T22:10:30.157Z,5.79
2023-01-10T22:12:56.550Z,5.78
2023-01-10T22:15:22.930Z,5.75
2023-01-10T22:17:49.280Z,5.79
2023-01-10T22:20:16.869Z,5.74
2023-01-10T22:22:43.372Z,5.73
2023-01-10T22:25:09.829Z,5.70
2023-01-10T22:27:36.187Z,5.71
2023-01-10T22:30:02.569Z,5.69
2023-01-10T22:32:28.948Z,5.68
2023-01-10T22:34:55.288Z,5.66
2023-01-10T22:37:21.885Z,5.70
2023-01-10T22:39:48.665Z,5.66
2023-01-10T22:42:15.140Z,5.67
2023-01-10T22:44:41.543Z,5.68
2023-01-10T22:47:08.580Z,5.69
2023-01-10T22:49:34.945Z,5.73
2023-01-10T22:52:01.540Z,5.75
2023-01-10T22:54:27.925Z,5.75
2023-01-10T22:56:54.289Z,5.76
2023-01-10T22:59:20.846Z,5.77
2023-01-10T23:01:47.220Z,5.83
2023-01-10T23:04:13.682Z,5.85
2023-01-10T23:06:40.115Z,5.84
2023-01-10T23:09:06.509Z,5.88
2023-01-10T23:11:32.890Z,5.89
2023-01-10T23:13:59.292Z,5.95
2023-01-10T23:16:32.596Z,6.08
2023-01-10T23:19:00.032Z,6.10
2023-01-10T23:21:27.133Z,6.05
2023-01-10T23:23:54.470Z,6.11
2023-01-10T23:26:20.831Z,6.15
2023-01-10T23:28:48.717Z,6.14
2023-01-10T23:31:16.695Z,6.18
2023-01-10T23:33:43.057Z,6.24
2023-01-10T23:36:10.011Z,6.26
2023-01-10T23:38:36.432Z,6.28
2023-01-10T23:41:03.081Z,6.30
2023-01-10T23:43:29.887Z,6.30
2023-01-10T23:45:56.423Z,6.32
2023-01-10T23:48:23.082Z,6.29
2023-01-10T23:50:50.052Z,6.37
2023-01-10T23:53:16.928Z,6.33
2023-01-10T23:55:43.329Z,6.36
2023-01-10T23:58:09.763Z,6.35
